ADDS METAR Data

Data at: 1823 UTC 20 Jul 2018

METAR for:KIJD (Willimantic/Windhan, CT, US)
Text:KIJD 201752Z AUTO 18007KT 10SM CLR 28/14 A3016 RMK AO2 SLP210 T02830139 10289 20167
Temperature: 28.3°C ( 83°F)
Dewpoint: 13.9°C ( 57°F) [RH = 41%]
Pressure (altimeter):30.16 inches Hg (1021.4 mb) [Sea level pressure: 1021.0 mb]
Winds:from the S (180 degrees) at 8 MPH (7 knots; 3.6 m/s)
Visibility:10 or more sm (16+ km)
Ceiling:at least 12,000 feet AGL
Clouds:sky clear below 12,000 feet AGL
QC Flag:automated observation with no human augmentation